createdAt,value
2023-09-30T00:01:45.311Z,17.20
2023-09-30T00:04:12.359Z,17.90
2023-09-30T00:06:39.127Z,16.70
2023-09-30T00:09:06.454Z,17.50
2023-09-30T00:11:33.198Z,17.20
2023-09-30T00:14:00.047Z,17.00
2023-09-30T00:16:26.858Z,17.90
2023-09-30T00:18:55.513Z,17.20
2023-09-30T00:21:22.498Z,16.80
2023-09-30T00:23:49.206Z,16.80
2023-09-30T00:26:15.842Z,17.20
2023-09-30T00:28:42.556Z,16.90
2023-09-30T00:31:12.104Z,17.00
2023-09-30T00:33:38.822Z,17.40
2023-09-30T00:36:09.526Z,17.30
2023-09-30T00:38:36.787Z,17.20
2023-09-30T00:41:03.679Z,17.30
2023-09-30T00:43:30.412Z,17.30
2023-09-30T00:46:02.637Z,17.40
2023-09-30T00:48:29.634Z,17.20
2023-09-30T00:50:58.100Z,17.00
2023-09-30T00:53:25.012Z,17.00
2023-09-30T00:55:52.286Z,17.00
2023-09-30T00:58:19.019Z,17.60
2023-09-30T01:00:45.712Z,16.90
2023-09-30T01:03:13.559Z,16.90
2023-09-30T01:05:40.428Z,16.90
2023-09-30T01:08:07.028Z,16.80
2023-09-30T01:10:33.659Z,16.70
2023-09-30T01:13:00.283Z,16.70
2023-09-30T01:15:26.962Z,16.60
2023-09-30T01:17:53.651Z,16.60
2023-09-30T01:20:24.825Z,16.60
2023-09-30T01:22:51.649Z,16.60
2023-09-30T01:25:18.414Z,16.60
2023-09-30T01:27:45.040Z,16.60
2023-09-30T01:30:12.394Z,16.60
2023-09-30T01:32:39.227Z,16.70
2023-09-30T01:35:06.244Z,16.70
2023-09-30T01:37:33.037Z,16.70
2023-09-30T01:39:59.723Z,16.60
2023-09-30T01:42:27.281Z,16.60
2023-09-30T01:44:54.202Z,16.50
2023-09-30T01:47:20.934Z,16.50
2023-09-30T01:49:47.650Z,16.40
2023-09-30T01:52:14.404Z,16.40
2023-09-30T01:54:41.202Z,16.30
2023-09-30T01:57:07.887Z,16.30
2023-09-30T01:59:34.554Z,16.20
2023-09-30T02:02:01.173Z,16.20
2023-09-30T02:04:27.832Z,16.20
2023-09-30T02:06:54.517Z,16.10
2023-09-30T02:09:21.486Z,16.00
2023-09-30T02:11:48.200Z,16.00
2023-09-30T02:14:14.813Z,16.60
2023-09-30T02:16:41.613Z,15.90
2023-09-30T02:19:10.226Z,15.90
2023-09-30T02:21:36.994Z,15.90
2023-09-30T02:24:03.862Z,16.00
2023-09-30T02:26:30.642Z,16.00
2023-09-30T02:28:57.882Z,16.10
2023-09-30T02:31:25.135Z,16.60
2023-09-30T02:33:52.164Z,16.10
2023-09-30T02:36:18.930Z,16.10
2023-09-30T02:38:47.405Z,16.80
2023-09-30T02:41:14.049Z,16.20
2023-09-30T02:43:41.834Z,16.30
2023-09-30T02:46:09.660Z,16.30
2023-09-30T02:48:36.461Z,16.30
2023-09-30T02:51:03.120Z,16.30
2023-09-30T02:53:29.841Z,16.20
2023-09-30T02:55:57.838Z,16.30
2023-09-30T02:58:25.333Z,16.80
2023-09-30T03:00:52.081Z,16.30
2023-09-30T03:03:18.897Z,16.30
2023-09-30T03:05:46.629Z,16.10
2023-09-30T03:08:13.468Z,16.20
2023-09-30T03:10:42.071Z,16.20
2023-09-30T03:13:10.318Z,16.20
2023-09-30T03:15:37.072Z,16.30
2023-09-30T03:18:04.719Z,16.30
2023-09-30T03:20:32.003Z,16.20
2023-09-30T03:22:59.018Z,16.20
2023-09-30T03:25:25.822Z,16.70
2023-09-30T03:27:52.558Z,16.20
2023-09-30T03:30:21.277Z,16.10
2023-09-30T03:32:48.637Z,16.10
2023-09-30T03:35:17.937Z,16.00
2023-09-30T03:37:45.892Z,16.00
2023-09-30T03:40:14.758Z,16.10
2023-09-30T03:42:43.742Z,15.90
2023-09-30T03:45:11.371Z,15.90
2023-09-30T03:47:38.454Z,15.80
2023-09-30T03:50:05.862Z,15.50
2023-09-30T03:52:34.809Z,15.80
2023-09-30T03:55:05.538Z,15.90
2023-09-30T03:57:33.004Z,15.90
2023-09-30T03:59:59.729Z,16.20
2023-09-30T04:02:26.465Z,15.90
2023-09-30T04:04:54.740Z,16.70
2023-09-30T04:07:22.400Z,16.40
2023-09-30T04:09:49.118Z,16.70
2023-09-30T04:12:16.272Z,16.00
2023-09-30T04:14:42.938Z,16.10
2023-09-30T04:17:10.280Z,16.00
2023-09-30T04:19:36.998Z,16.10
2023-09-30T04:22:03.644Z,16.20
2023-09-30T04:24:30.635Z,16.10
2023-09-30T04:27:03.314Z,16.10
2023-09-30T04:29:30.598Z,16.00
2023-09-30T04:31:57.736Z,16.10
2023-09-30T04:34:24.521Z,15.80
2023-09-30T04:36:51.155Z,16.00
2023-09-30T04:39:17.825Z,16.00
2023-09-30T04:41:44.457Z,16.00
2023-09-30T04:44:11.153Z,16.50
2023-09-30T04:46:41.656Z,15.70
2023-09-30T04:49:08.847Z,16.30
2023-09-30T04:51:35.706Z,15.50
2023-09-30T04:54:03.408Z,15.80
2023-09-30T04:56:30.357Z,16.20
2023-09-30T04:58:57.006Z,15.70
2023-09-30T05:01:23.644Z,15.60
2023-09-30T05:03:50.664Z,15.40
2023-09-30T05:06:18.108Z,15.60
2023-09-30T05:08:44.778Z,16.10
2023-09-30T05:11:11.522Z,16.00
2023-09-30T05:13:38.156Z,15.40
2023-09-30T05:16:05.337Z,15.10
2023-09-30T05:18:32.439Z,15.20
2023-09-30T05:20:59.202Z,15.20
2023-09-30T05:23:26.640Z,15.20
2023-09-30T05:25:54.095Z,14.90
2023-09-30T05:28:23.839Z,15.10
2023-09-30T05:30:51.864Z,15.20
2023-09-30T05:33:18.706Z,15.80
2023-09-30T05:35:45.337Z,15.40
2023-09-30T05:38:11.949Z,15.70
2023-09-30T05:40:38.588Z,15.20
2023-09-30T05:43:06.610Z,15.20
2023-09-30T05:45:36.854Z,15.50
2023-09-30T05:48:06.625Z,15.30
2023-09-30T05:50:35.054Z,15.30
2023-09-30T05:53:01.678Z,15.50
2023-09-30T05:55:28.984Z,15.40
2023-09-30T05:57:56.252Z,16.10
2023-09-30T06:00:24.465Z,15.60
2023-09-30T06:02:52.642Z,15.70
2023-09-30T06:05:27.590Z,16.10
2023-09-30T06:07:55.304Z,15.70
2023-09-30T06:10:22.420Z,15.90
2023-09-30T06:12:49.907Z,15.90
2023-09-30T06:15:17.149Z,15.70
2023-09-30T06:17:44.190Z,16.10
2023-09-30T06:20:17.577Z,16.20
2023-09-30T06:22:46.999Z,16.30
2023-09-30T06:25:14.785Z,16.30
2023-09-30T06:27:41.501Z,16.40
2023-09-30T06:30:10.058Z,16.60
2023-09-30T06:32:36.822Z,16.50
2023-09-30T06:35:04.609Z,16.50
2023-09-30T06:37:31.228Z,16.30
2023-09-30T06:39:57.963Z,16.40
2023-09-30T06:42:25.599Z,16.70
2023-09-30T06:44:53.964Z,16.50
2023-09-30T06:47:21.809Z,16.50
2023-09-30T06:49:48.864Z,16.70
2023-09-30T06:52:15.530Z,16.70
2023-09-30T06:54:42.204Z,16.80
2023-09-30T06:57:09.376Z,16.90
2023-09-30T06:59:36.025Z,17.10
2023-09-30T07:02:02.809Z,17.10
2023-09-30T07:04:30.072Z,17.70
2023-09-30T07:06:56.837Z,17.20
2023-09-30T07:09:23.534Z,17.10
2023-09-30T07:11:50.491Z,17.20
2023-09-30T07:14:17.222Z,17.20
2023-09-30T07:16:44.261Z,17.30
2023-09-30T07:19:10.993Z,17.50
2023-09-30T07:21:38.761Z,17.60
2023-09-30T07:24:05.891Z,17.40
2023-09-30T07:26:32.676Z,17.20
2023-09-30T07:28:59.588Z,17.40
2023-09-30T07:31:26.976Z,17.50
2023-09-30T07:33:54.188Z,17.70
2023-09-30T07:36:21.140Z,17.60
2023-09-30T07:38:48.281Z,17.60
2023-09-30T07:41:15.010Z,17.80
2023-09-30T07:43:41.628Z,17.60
2023-09-30T07:46:08.650Z,17.40
2023-09-30T07:48:36.389Z,17.60
2023-09-30T07:51:03.304Z,17.50
2023-09-30T07:53:30.158Z,17.80
2023-09-30T07:55:57.653Z,17.90
2023-09-30T07:58:24.483Z,18.00
2023-09-30T08:00:51.966Z,18.20
2023-09-30T08:03:18.935Z,18.10
2023-09-30T08:05:47.556Z,18.20
2023-09-30T08:08:15.508Z,18.30
2023-09-30T08:10:43.421Z,18.40
2023-09-30T08:13:10.695Z,18.60
2023-09-30T08:15:38.149Z,18.60
2023-09-30T08:18:07.241Z,18.50
2023-09-30T08:20:34.055Z,18.10
2023-09-30T08:23:00.706Z,18.00
2023-09-30T08:25:27.870Z,18.50
2023-09-30T08:27:55.777Z,19.00
2023-09-30T08:30:22.676Z,20.00
2023-09-30T08:32:49.346Z,20.30
2023-09-30T08:35:16.519Z,20.70
2023-09-30T08:37:43.243Z,20.70
2023-09-30T08:40:11.161Z,20.80
2023-09-30T08:42:39.388Z,20.50
2023-09-30T08:45:07.951Z,20.50
2023-09-30T08:47:36.503Z,20.50
2023-09-30T08:50:07.749Z,20.30
2023-09-30T08:52:37.994Z,20.10
2023-09-30T08:55:08.140Z,20.00
2023-09-30T08:57:36.938Z,20.30
2023-09-30T09:00:03.807Z,20.40
2023-09-30T09:02:30.498Z,20.50
2023-09-30T09:04:58.741Z,20.70
2023-09-30T09:07:25.369Z,20.80
2023-09-30T09:10:05.740Z,20.90
2023-09-30T09:12:33.294Z,21.20
2023-09-30T09:15:00.138Z,21.80
2023-09-30T09:17:41.750Z,22.30
2023-09-30T09:20:11.356Z,22.80
2023-09-30T09:22:42.079Z,22.80
2023-09-30T09:25:08.935Z,22.60
2023-09-30T09:27:38.502Z,22.40
2023-09-30T09:30:18.224Z,22.20
2023-09-30T09:33:01.498Z,21.70
2023-09-30T09:35:33.549Z,20.80
2023-09-30T09:38:01.510Z,20.20
2023-09-30T09:40:29.421Z,20.20
2023-09-30T09:42:57.037Z,20.20
2023-09-30T09:45:26.697Z,20.20
2023-09-30T09:47:54.185Z,20.30
2023-09-30T09:50:21.860Z,21.00
2023-09-30T09:52:50.051Z,22.00
2023-09-30T09:55:18.145Z,22.90
2023-09-30T10:00:35.071Z,25.40
2023-09-30T10:03:04.045Z,25.90
2023-09-30T10:05:30.842Z,26.50
2023-09-30T10:08:01.236Z,26.80
2023-09-30T10:10:29.261Z,26.80
2023-09-30T10:12:55.944Z,26.80
2023-09-30T10:15:25.788Z,27.00
2023-09-30T10:18:04.327Z,26.80
2023-09-30T10:20:32.090Z,26.40
2023-09-30T10:23:17.490Z,26.00
2023-09-30T10:25:50.566Z,24.80
2023-09-30T10:28:36.126Z,24.20
2023-09-30T10:31:08.961Z,24.40
2023-09-30T10:33:35.719Z,24.20
2023-09-30T10:36:04.250Z,23.40
2023-09-30T10:38:32.228Z,23.60
2023-09-30T10:40:59.132Z,23.10
2023-09-30T10:43:39.171Z,23.40
2023-09-30T10:46:27.264Z,23.80
2023-09-30T10:48:54.517Z,23.90
2023-09-30T10:51:24.348Z,24.00
2023-09-30T10:53:58.258Z,24.00
2023-09-30T10:56:25.500Z,23.90
2023-09-30T10:58:53.456Z,24.00
2023-09-30T11:01:21.504Z,23.70
2023-09-30T11:03:48.962Z,23.80
2023-09-30T11:06:19.189Z,24.30
2023-09-30T11:08:48.127Z,25.00
2023-09-30T11:11:15.780Z,25.80
2023-09-30T11:13:42.786Z,26.80
2023-09-30T11:16:09.821Z,27.00
2023-09-30T11:18:39.354Z,27.40
2023-09-30T11:21:07.436Z,28.00
2023-09-30T11:23:34.583Z,28.70
2023-09-30T11:26:01.248Z,28.60
2023-09-30T11:28:36.844Z,28.90
2023-09-30T11:31:03.945Z,27.60
2023-09-30T11:33:31.447Z,27.90
2023-09-30T11:36:00.094Z,28.30
2023-09-30T11:38:26.856Z,28.80
2023-09-30T11:41:01.154Z,29.10
2023-09-30T11:43:28.518Z,28.80
2023-09-30T11:46:05.014Z,28.00
2023-09-30T11:48:31.758Z,27.30
2023-09-30T11:51:02.628Z,26.40
2023-09-30T11:53:32.795Z,26.10
2023-09-30T11:56:00.457Z,25.60
2023-09-30T11:58:27.861Z,25.20
2023-09-30T12:00:58.864Z,25.00
2023-09-30T12:03:26.611Z,25.50
2023-09-30T12:05:56.461Z,26.80
2023-09-30T12:08:24.067Z,28.00
2023-09-30T12:10:50.823Z,28.80
2023-09-30T12:13:17.939Z,28.90
2023-09-30T12:15:45.440Z,29.80
2023-09-30T12:18:14.514Z,30.50
2023-09-30T12:20:42.448Z,31.20
2023-09-30T12:23:09.162Z,31.60
2023-09-30T12:25:36.887Z,32.10
2023-09-30T12:28:03.688Z,31.50
2023-09-30T12:30:33.241Z,31.60
2023-09-30T12:33:00.025Z,30.80
2023-09-30T12:35:26.718Z,30.60
2023-09-30T12:37:53.365Z,31.10
2023-09-30T12:40:20.098Z,31.10
2023-09-30T12:42:47.699Z,30.50
2023-09-30T12:45:14.664Z,30.80
2023-09-30T12:47:41.314Z,31.50
2023-09-30T12:50:12.730Z,31.40
2023-09-30T12:52:39.745Z,31.30
2023-09-30T12:55:06.838Z,30.80
2023-09-30T12:57:33.509Z,30.80
2023-09-30T13:00:00.199Z,30.50
2023-09-30T13:02:27.018Z,30.10
2023-09-30T13:04:55.706Z,29.10
2023-09-30T13:07:22.512Z,27.70
2023-09-30T13:09:49.219Z,26.40
2023-09-30T13:12:15.952Z,26.00
2023-09-30T13:14:43.362Z,25.70
2023-09-30T13:17:10.772Z,25.30
2023-09-30T13:19:38.274Z,26.00
2023-09-30T13:22:18.224Z,26.40
2023-09-30T13:24:45.906Z,26.70
2023-09-30T13:27:12.577Z,27.00
2023-09-30T13:29:39.280Z,26.90
2023-09-30T13:32:06.530Z,25.80
2023-09-30T13:34:33.275Z,25.80
2023-09-30T13:36:59.928Z,25.50
2023-09-30T13:39:26.772Z,25.20
2023-09-30T13:41:53.504Z,25.00
2023-09-30T13:44:20.251Z,24.70
2023-09-30T13:46:46.991Z,24.60
2023-09-30T13:49:13.782Z,24.10
2023-09-30T13:51:40.634Z,24.20
2023-09-30T13:54:10.113Z,23.90
2023-09-30T13:56:36.725Z,23.80
2023-09-30T13:59:03.338Z,23.70
2023-09-30T14:01:30.136Z,23.70
2023-09-30T14:03:58.447Z,23.50
2023-09-30T14:06:25.242Z,23.60
2023-09-30T14:08:53.919Z,23.50
2023-09-30T14:11:20.576Z,23.40
2023-09-30T14:13:47.252Z,23.40
2023-09-30T14:16:13.930Z,23.30
2023-09-30T14:18:40.723Z,23.50
2023-09-30T14:21:07.733Z,23.50
2023-09-30T14:23:34.324Z,23.50
2023-09-30T14:26:01.796Z,23.40
2023-09-30T14:28:28.468Z,23.40
2023-09-30T14:30:55.222Z,23.10
2023-09-30T14:33:21.981Z,23.00
2023-09-30T14:35:50.873Z,23.10
2023-09-30T14:38:17.670Z,22.90
2023-09-30T14:40:44.275Z,22.80
2023-09-30T14:43:11.073Z,22.70
2023-09-30T14:45:38.541Z,22.70
2023-09-30T14:48:06.117Z,22.60
2023-09-30T14:50:32.756Z,22.40
2023-09-30T14:52:59.534Z,22.30
2023-09-30T14:55:26.174Z,22.30
2023-09-30T14:57:52.839Z,22.30
2023-09-30T15:00:22.677Z,22.30
2023-09-30T15:02:49.422Z,22.20
2023-09-30T15:05:16.931Z,22.30
2023-09-30T15:07:43.949Z,22.30
2023-09-30T15:10:10.757Z,22.40
2023-09-30T15:12:37.674Z,22.40
2023-09-30T15:15:05.073Z,22.30
2023-09-30T15:17:31.795Z,22.10
2023-09-30T15:19:59.177Z,21.90
2023-09-30T15:22:25.837Z,22.00
2023-09-30T15:24:52.492Z,21.90
2023-09-30T15:27:19.581Z,21.90
2023-09-30T15:29:46.358Z,21.80
2023-09-30T15:32:13.258Z,21.60
2023-09-30T15:34:41.296Z,21.50
2023-09-30T15:37:08.529Z,21.40
2023-09-30T15:39:39.919Z,21.40
2023-09-30T15:42:07.101Z,21.40
2023-09-30T15:44:33.738Z,21.30
2023-09-30T15:47:00.380Z,21.30
2023-09-30T15:49:27.108Z,21.30
2023-09-30T15:51:54.478Z,21.20
2023-09-30T15:54:21.154Z,21.00
2023-09-30T15:56:55.821Z,21.00
2023-09-30T15:59:23.413Z,20.80
2023-09-30T16:01:50.217Z,20.80
2023-09-30T16:04:17.240Z,20.70
2023-09-30T16:06:44.215Z,20.60
2023-09-30T16:09:10.879Z,20.50
2023-09-30T16:11:37.506Z,20.30
2023-09-30T16:14:04.571Z,20.30
2023-09-30T16:16:31.440Z,20.20
2023-09-30T16:18:58.235Z,20.10
2023-09-30T16:21:29.065Z,20.10
2023-09-30T16:23:56.184Z,20.00
2023-09-30T16:26:22.935Z,19.90
2023-09-30T16:28:49.631Z,19.90
2023-09-30T16:31:17.184Z,19.80
2023-09-30T16:33:43.944Z,19.70
2023-09-30T16:36:10.764Z,19.60
2023-09-30T16:38:37.409Z,19.50
2023-09-30T16:41:04.080Z,19.40
2023-09-30T16:43:30.810Z,19.30
2023-09-30T16:46:01.763Z,19.20
2023-09-30T16:48:28.427Z,19.10
2023-09-30T16:50:55.094Z,19.00
2023-09-30T16:53:21.760Z,18.80
2023-09-30T16:55:48.369Z,18.70
2023-09-30T16:58:15.064Z,18.50
2023-09-30T17:00:41.845Z,18.40
2023-09-30T17:03:09.519Z,18.30
2023-09-30T17:05:36.763Z,18.20
2023-09-30T17:08:03.476Z,18.10
2023-09-30T17:10:30.142Z,17.90
2023-09-30T17:12:56.814Z,17.80
2023-09-30T17:15:23.467Z,18.10
2023-09-30T17:17:50.123Z,17.50
2023-09-30T17:20:17.846Z,17.30
2023-09-30T17:22:44.671Z,17.20
2023-09-30T17:25:11.413Z,17.20
2023-09-30T17:27:38.207Z,17.80
2023-09-30T17:30:05.940Z,16.90
2023-09-30T17:32:32.759Z,16.80
2023-09-30T17:34:59.458Z,16.70
2023-09-30T17:37:27.136Z,16.60
2023-09-30T17:39:53.864Z,16.60
2023-09-30T17:42:20.857Z,16.50
2023-09-30T17:44:48.616Z,16.40
2023-09-30T17:47:15.647Z,16.30
2023-09-30T17:49:42.640Z,16.20
2023-09-30T17:52:09.404Z,16.20
2023-09-30T17:54:36.144Z,16.10
2023-09-30T17:57:02.892Z,16.00
2023-09-30T17:59:31.329Z,16.00
2023-09-30T18:01:58.055Z,15.90
2023-09-30T18:04:24.822Z,15.80
2023-09-30T18:06:52.488Z,15.80
2023-09-30T18:09:19.186Z,15.70
2023-09-30T18:11:45.827Z,15.70
2023-09-30T18:14:17.136Z,15.60
2023-09-30T18:16:44.989Z,15.60
2023-09-30T18:19:11.792Z,15.50
2023-09-30T18:21:38.536Z,15.40
2023-09-30T18:24:06.050Z,15.40
2023-09-30T18:26:32.720Z,15.30
2023-09-30T18:28:59.377Z,15.30
2023-09-30T18:31:26.428Z,15.20
2023-09-30T18:33:53.493Z,15.20
2023-09-30T18:36:20.756Z,15.10
2023-09-30T18:38:47.593Z,15.20
2023-09-30T18:41:17.888Z,15.10
2023-09-30T18:43:45.516Z,15.00
2023-09-30T18:46:15.724Z,15.00
2023-09-30T18:48:42.918Z,15.00
2023-09-30T18:51:09.760Z,15.00
2023-09-30T18:53:37.549Z,14.90
2023-09-30T18:56:04.766Z,14.90
2023-09-30T18:58:31.566Z,14.80
2023-09-30T19:00:58.347Z,14.80
2023-09-30T19:03:26.694Z,14.70
2023-09-30T19:05:55.364Z,14.70
2023-09-30T19:08:23.879Z,14.70
2023-09-30T19:10:51.434Z,15.10
2023-09-30T19:13:18.360Z,14.70
2023-09-30T19:15:45.190Z,14.60
2023-09-30T19:18:12.196Z,14.60
2023-09-30T19:20:39.381Z,14.60
2023-09-30T19:23:06.108Z,14.50
2023-09-30T19:25:33.236Z,14.50
2023-09-30T19:27:59.967Z,14.50
2023-09-30T19:30:26.627Z,14.50
2023-09-30T19:32:53.302Z,14.40
2023-09-30T19:35:20.763Z,14.60
2023-09-30T19:37:47.498Z,14.30
2023-09-30T19:40:14.153Z,14.40
2023-09-30T19:42:41.061Z,14.30
2023-09-30T19:45:07.898Z,14.20
2023-09-30T19:47:34.619Z,14.20
2023-09-30T19:50:01.337Z,16.50
2023-09-30T19:52:31.235Z,14.10
2023-09-30T19:54:58.324Z,14.10
2023-09-30T19:57:25.560Z,14.00
2023-09-30T19:59:52.339Z,13.90
2023-09-30T20:02:20.659Z,13.80
2023-09-30T20:04:48.005Z,13.90
2023-09-30T20:07:14.838Z,13.80
2023-09-30T20:09:43.787Z,13.80
2023-09-30T20:12:11.037Z,13.70
2023-09-30T20:14:37.732Z,13.70
2023-09-30T20:17:04.513Z,13.70
2023-09-30T20:19:31.426Z,13.60
2023-09-30T20:21:58.143Z,13.80
2023-09-30T20:24:25.118Z,13.60
2023-09-30T20:26:51.876Z,13.50
2023-09-30T20:29:18.552Z,13.50
2023-09-30T20:31:45.510Z,13.50
2023-09-30T20:34:13.228Z,13.50
2023-09-30T20:36:40.017Z,13.40
2023-09-30T20:39:10.411Z,13.40
2023-09-30T20:41:40.312Z,13.30
2023-09-30T20:44:07.086Z,13.30
2023-09-30T20:46:33.778Z,13.30
2023-09-30T20:49:00.773Z,14.00
2023-09-30T20:51:27.528Z,13.20
2023-09-30T20:53:54.659Z,13.20
2023-09-30T20:56:21.416Z,13.20
2023-09-30T20:58:50.430Z,13.10
2023-09-30T21:01:17.884Z,13.10
2023-09-30T21:03:44.843Z,13.10
2023-09-30T21:06:12.149Z,13.10
2023-09-30T21:08:39.459Z,13.00
2023-09-30T21:11:09.239Z,13.00
2023-09-30T21:13:36.325Z,13.00
2023-09-30T21:16:05.941Z,13.00
2023-09-30T21:18:33.722Z,12.90
2023-09-30T21:21:00.713Z,12.90
2023-09-30T21:23:27.495Z,12.90
2023-09-30T21:25:54.231Z,12.90
2023-09-30T21:28:21.179Z,12.80
2023-09-30T21:30:48.103Z,12.80
2023-09-30T21:33:14.940Z,12.80
2023-09-30T21:35:41.822Z,12.90
2023-09-30T21:38:11.511Z,12.80
2023-09-30T21:40:38.201Z,12.70
2023-09-30T21:43:04.960Z,12.70
2023-09-30T21:45:32.176Z,12.70
2023-09-30T21:47:59.252Z,12.60
2023-09-30T21:50:26.032Z,12.60
2023-09-30T21:52:52.761Z,12.60
2023-09-30T21:55:19.669Z,12.50
2023-09-30T21:57:46.455Z,12.50
2023-09-30T22:00:16.016Z,12.50
2023-09-30T22:02:43.404Z,12.50
2023-09-30T22:05:11.375Z,12.40
2023-09-30T22:07:41.254Z,12.40
2023-09-30T22:10:09.390Z,12.40
2023-09-30T22:12:37.098Z,12.40
2023-09-30T22:15:04.154Z,12.40
2023-09-30T22:17:30.921Z,12.40
2023-09-30T22:19:57.616Z,12.30
2023-09-30T22:22:24.842Z,12.30
2023-09-30T22:24:55.180Z,12.30
2023-09-30T22:27:22.271Z,12.30
2023-09-30T22:29:49.222Z,12.20
2023-09-30T22:32:16.143Z,12.20
2023-09-30T22:34:42.981Z,12.20
2023-09-30T22:37:10.557Z,12.20
2023-09-30T22:39:37.322Z,12.10
2023-09-30T22:42:03.996Z,12.10
2023-09-30T22:44:32.400Z,12.10
2023-09-30T22:46:59.126Z,12.10
2023-09-30T22:49:26.303Z,12.00
2023-09-30T22:51:53.427Z,12.00
2023-09-30T22:54:20.139Z,12.00
2023-09-30T22:56:46.816Z,12.00
2023-09-30T22:59:13.572Z,12.00
2023-09-30T23:01:40.328Z,11.90
2023-09-30T23:04:07.189Z,11.90
2023-09-30T23:06:34.153Z,11.90
2023-09-30T23:09:01.018Z,11.80
2023-09-30T23:11:28.983Z,11.80
2023-09-30T23:13:56.409Z,11.80
2023-09-30T23:16:23.186Z,11.70
2023-09-30T23:18:50.319Z,11.70
2023-09-30T23:21:19.680Z,11.70
2023-09-30T23:23:46.331Z,11.60
2023-09-30T23:26:13.182Z,11.60
2023-09-30T23:28:40.285Z,11.60
2023-09-30T23:31:07.147Z,11.60
2023-09-30T23:33:34.679Z,11.50
2023-09-30T23:36:03.824Z,11.70
2023-09-30T23:38:31.684Z,11.80
2023-09-30T23:40:59.775Z,11.40
2023-09-30T23:43:27.150Z,11.30
2023-09-30T23:45:54.626Z,11.40
2023-09-30T23:48:22.479Z,11.40
2023-09-30T23:50:54.644Z,11.40
2023-09-30T23:53:23.631Z,11.30
2023-09-30T23:55:50.736Z,12.40
2023-09-30T23:58:17.634Z,11.30
